sensor_id;sensor_type;location;lat;lon;timestamp;P1;durP1;ratioP1;P2;durP2;ratioP2
72065;SDS011;59939;52.516;13.420;2023-07-13T00:01:32;11.10;;;3.55;;
72065;SDS011;59939;52.516;13.420;2023-07-13T00:04:45;10.07;;;3.70;;
72065;SDS011;59939;52.516;13.420;2023-07-13T00:07:50;12.75;;;4.38;;
72065;SDS011;59939;52.516;13.420;2023-07-13T00:10:58;12.35;;;4.45;;
72065;SDS011;59939;52.516;13.420;2023-07-13T00:14:02;11.23;;;3.70;;
72065;SDS011;59939;52.516;13.420;2023-07-13T00:17:08;9.27;;;3.53;;
72065;SDS011;59939;52.516;13.420;2023-07-13T00:20:13;9.85;;;3.72;;
72065;SDS011;59939;52.516;13.420;2023-07-13T00:23:17;10.98;;;3.13;;
72065;SDS011;59939;52.516;13.420;2023-07-13T00:26:21;9.60;;;3.05;;
72065;SDS011;59939;52.516;13.420;2023-07-13T00:29:25;9.18;;;3.25;;
72065;SDS011;59939;52.516;13.420;2023-07-13T00:32:43;8.20;;;3.13;;
72065;SDS011;59939;52.516;13.420;2023-07-13T00:35:49;10.43;;;3.50;;
72065;SDS011;59939;52.516;13.420;2023-07-13T00:38:54;10.63;;;3.70;;
72065;SDS011;59939;52.516;13.420;2023-07-13T00:42:01;9.18;;;2.95;;
72065;SDS011;59939;52.516;13.420;2023-07-13T00:48:22;10.73;;;3.20;;
72065;SDS011;59939;52.516;13.420;2023-07-13T00:51:34;10.65;;;3.05;;
72065;SDS011;59939;52.516;13.420;2023-07-13T00:54:43;10.40;;;3.05;;
72065;SDS011;59939;52.516;13.420;2023-07-13T00:57:51;12.27;;;3.17;;
72065;SDS011;59939;52.516;13.420;2023-07-13T01:00:59;9.85;;;3.35;;
72065;SDS011;59939;52.516;13.420;2023-07-13T01:04:23;6.30;;;2.90;;
72065;SDS011;59939;52.516;13.420;2023-07-13T01:07:29;9.38;;;3.15;;
72065;SDS011;59939;52.516;13.420;2023-07-13T01:10:34;9.65;;;3.10;;
72065;SDS011;59939;52.516;13.420;2023-07-13T01:13:56;8.20;;;3.38;;
72065;SDS011;59939;52.516;13.420;2023-07-13T01:17:02;11.75;;;3.75;;
72065;SDS011;59939;52.516;13.420;2023-07-13T01:20:08;12.25;;;3.63;;
72065;SDS011;59939;52.516;13.420;2023-07-13T01:23:14;8.45;;;3.45;;
72065;SDS011;59939;52.516;13.420;2023-07-13T01:26:22;9.10;;;2.97;;
72065;SDS011;59939;52.516;13.420;2023-07-13T01:29:26;9.30;;;2.70;;
72065;SDS011;59939;52.516;13.420;2023-07-13T01:32:31;7.38;;;2.63;;
72065;SDS011;59939;52.516;13.420;2023-07-13T01:35:43;10.07;;;2.70;;
72065;SDS011;59939;52.516;13.420;2023-07-13T01:38:48;11.60;;;3.75;;
72065;SDS011;59939;52.516;13.420;2023-07-13T01:41:52;6.95;;;2.67;;
72065;SDS011;59939;52.516;13.420;2023-07-13T01:45:04;8.25;;;2.95;;
72065;SDS011;59939;52.516;13.420;2023-07-13T01:48:22;8.70;;;2.97;;
72065;SDS011;59939;52.516;13.420;2023-07-13T01:51:28;11.02;;;3.67;;
72065;SDS011;59939;52.516;13.420;2023-07-13T01:54:32;14.48;;;3.83;;
72065;SDS011;59939;52.516;13.420;2023-07-13T01:57:37;14.13;;;3.72;;
72065;SDS011;59939;52.516;13.420;2023-07-13T02:00:42;8.90;;;2.90;;
72065;SDS011;59939;52.516;13.420;2023-07-13T02:03:46;9.55;;;3.13;;
72065;SDS011;59939;52.516;13.420;2023-07-13T02:06:50;9.40;;;3.25;;
72065;SDS011;59939;52.516;13.420;2023-07-13T02:09:55;11.55;;;3.03;;
72065;SDS011;59939;52.516;13.420;2023-07-13T02:12:59;9.52;;;3.25;;
72065;SDS011;59939;52.516;13.420;2023-07-13T02:16:10;8.93;;;3.08;;
72065;SDS011;59939;52.516;13.420;2023-07-13T02:19:14;9.43;;;3.30;;
72065;SDS011;59939;52.516;13.420;2023-07-13T02:22:18;10.60;;;3.33;;
72065;SDS011;59939;52.516;13.420;2023-07-13T02:25:25;9.98;;;3.20;;
72065;SDS011;59939;52.516;13.420;2023-07-13T02:28:32;10.40;;;3.47;;
72065;SDS011;59939;52.516;13.420;2023-07-13T02:31:36;8.60;;;3.20;;
72065;SDS011;59939;52.516;13.420;2023-07-13T02:34:42;11.10;;;3.70;;
72065;SDS011;59939;52.516;13.420;2023-07-13T02:38:00;9.50;;;3.13;;
72065;SDS011;59939;52.516;13.420;2023-07-13T02:41:05;8.38;;;3.42;;
72065;SDS011;59939;52.516;13.420;2023-07-13T02:44:09;8.55;;;3.20;;
72065;SDS011;59939;52.516;13.420;2023-07-13T02:47:23;8.07;;;3.38;;
72065;SDS011;59939;52.516;13.420;2023-07-13T02:50:29;10.07;;;3.33;;
72065;SDS011;59939;52.516;13.420;2023-07-13T02:53:37;11.38;;;3.42;;
72065;SDS011;59939;52.516;13.420;2023-07-13T02:56:44;16.98;;;4.25;;
72065;SDS011;59939;52.516;13.420;2023-07-13T02:59:48;11.82;;;3.60;;
72065;SDS011;59939;52.516;13.420;2023-07-13T03:02:52;19.70;;;5.82;;
72065;SDS011;59939;52.516;13.420;2023-07-13T03:06:10;10.23;;;3.55;;
72065;SDS011;59939;52.516;13.420;2023-07-13T03:09:24;12.65;;;3.97;;
72065;SDS011;59939;52.516;13.420;2023-07-13T03:12:30;10.25;;;4.25;;
72065;SDS011;59939;52.516;13.420;2023-07-13T03:15:34;8.23;;;3.70;;
72065;SDS011;59939;52.516;13.420;2023-07-13T03:18:40;16.85;;;4.60;;
72065;SDS011;59939;52.516;13.420;2023-07-13T03:21:47;12.52;;;3.97;;
72065;SDS011;59939;52.516;13.420;2023-07-13T03:24:54;11.57;;;4.38;;
72065;SDS011;59939;52.516;13.420;2023-07-13T03:28:02;10.50;;;3.80;;
72065;SDS011;59939;52.516;13.420;2023-07-13T03:31:08;10.82;;;3.67;;
72065;SDS011;59939;52.516;13.420;2023-07-13T03:34:14;11.52;;;3.80;;
72065;SDS011;59939;52.516;13.420;2023-07-13T03:37:19;10.85;;;3.90;;
72065;SDS011;59939;52.516;13.420;2023-07-13T03:40:24;11.15;;;3.80;;
72065;SDS011;59939;52.516;13.420;2023-07-13T03:43:31;11.30;;;3.97;;
72065;SDS011;59939;52.516;13.420;2023-07-13T03:46:35;11.07;;;3.45;;
72065;SDS011;59939;52.516;13.420;2023-07-13T03:49:40;10.60;;;3.75;;
72065;SDS011;59939;52.516;13.420;2023-07-13T03:52:45;7.93;;;3.30;;
72065;SDS011;59939;52.516;13.420;2023-07-13T03:55:51;9.55;;;4.05;;
72065;SDS011;59939;52.516;13.420;2023-07-13T03:58:55;9.77;;;3.35;;
72065;SDS011;59939;52.516;13.420;2023-07-13T04:02:07;9.13;;;3.53;;
72065;SDS011;59939;52.516;13.420;2023-07-13T04:05:13;9.70;;;3.65;;
72065;SDS011;59939;52.516;13.420;2023-07-13T04:08:24;9.50;;;3.55;;
72065;SDS011;59939;52.516;13.420;2023-07-13T04:11:29;7.88;;;2.92;;
72065;SDS011;59939;52.516;13.420;2023-07-13T04:14:33;9.82;;;3.40;;
72065;SDS011;59939;52.516;13.420;2023-07-13T04:17:37;7.05;;;3.35;;
72065;SDS011;59939;52.516;13.420;2023-07-13T04:20:41;10.77;;;3.17;;
72065;SDS011;59939;52.516;13.420;2023-07-13T04:23:45;7.28;;;3.30;;
72065;SDS011;59939;52.516;13.420;2023-07-13T04:26:50;7.68;;;3.13;;
72065;SDS011;59939;52.516;13.420;2023-07-13T04:29:54;10.45;;;3.47;;
72065;SDS011;59939;52.516;13.420;2023-07-13T04:32:58;10.52;;;3.55;;
72065;SDS011;59939;52.516;13.420;2023-07-13T04:36:09;9.10;;;3.38;;
72065;SDS011;59939;52.516;13.420;2023-07-13T04:39:13;8.70;;;3.30;;
72065;SDS011;59939;52.516;13.420;2023-07-13T04:42:19;11.20;;;3.40;;
72065;SDS011;59939;52.516;13.420;2023-07-13T04:45:24;8.48;;;3.30;;
72065;SDS011;59939;52.516;13.420;2023-07-13T04:48:28;10.63;;;3.42;;
72065;SDS011;59939;52.516;13.420;2023-07-13T04:51:32;8.73;;;3.38;;
72065;SDS011;59939;52.516;13.420;2023-07-13T04:54:44;13.00;;;3.40;;
72065;SDS011;59939;52.516;13.420;2023-07-13T04:57:48;11.07;;;3.20;;
72065;SDS011;59939;52.516;13.420;2023-07-13T05:00:53;12.20;;;3.60;;
72065;SDS011;59939;52.516;13.420;2023-07-13T05:03:59;11.45;;;3.55;;
72065;SDS011;59939;52.516;13.420;2023-07-13T05:07:04;7.93;;;3.47;;
72065;SDS011;59939;52.516;13.420;2023-07-13T05:10:11;10.75;;;3.65;;
72065;SDS011;59939;52.516;13.420;2023-07-13T05:13:18;9.88;;;3.97;;
72065;SDS011;59939;52.516;13.420;2023-07-13T05:16:23;11.35;;;3.47;;
72065;SDS011;59939;52.516;13.420;2023-07-13T05:19:30;8.38;;;3.15;;
72065;SDS011;59939;52.516;13.420;2023-07-13T05:22:35;9.75;;;2.92;;
72065;SDS011;59939;52.516;13.420;2023-07-13T05:25:40;10.45;;;3.17;;
72065;SDS011;59939;52.516;13.420;2023-07-13T05:28:46;10.27;;;3.13;;
72065;SDS011;59939;52.516;13.420;2023-07-13T05:31:50;13.38;;;3.08;;
72065;SDS011;59939;52.516;13.420;2023-07-13T05:34:54;13.02;;;3.25;;
72065;SDS011;59939;52.516;13.420;2023-07-13T05:37:59;10.98;;;3.65;;
72065;SDS011;59939;52.516;13.420;2023-07-13T05:41:03;7.60;;;3.10;;
72065;SDS011;59939;52.516;13.420;2023-07-13T05:44:10;5.40;;;2.60;;
72065;SDS011;59939;52.516;13.420;2023-07-13T05:47:28;12.82;;;3.88;;
72065;SDS011;59939;52.516;13.420;2023-07-13T05:50:32;11.32;;;3.80;;
72065;SDS011;59939;52.516;13.420;2023-07-13T05:53:36;10.27;;;4.15;;
72065;SDS011;59939;52.516;13.420;2023-07-13T05:56:41;11.25;;;3.58;;
72065;SDS011;59939;52.516;13.420;2023-07-13T05:59:47;13.98;;;3.67;;
72065;SDS011;59939;52.516;13.420;2023-07-13T06:02:51;10.95;;;4.05;;
72065;SDS011;59939;52.516;13.420;2023-07-13T06:05:55;14.88;;;3.70;;
72065;SDS011;59939;52.516;13.420;2023-07-13T06:08:59;9.82;;;3.40;;
72065;SDS011;59939;52.516;13.420;2023-07-13T06:12:04;9.15;;;3.80;;
72065;SDS011;59939;52.516;13.420;2023-07-13T06:15:09;12.95;;;3.60;;
72065;SDS011;59939;52.516;13.420;2023-07-13T06:18:15;11.38;;;3.88;;
72065;SDS011;59939;52.516;13.420;2023-07-13T06:21:23;13.48;;;4.40;;
72065;SDS011;59939;52.516;13.420;2023-07-13T06:24:27;12.18;;;4.35;;
72065;SDS011;59939;52.516;13.420;2023-07-13T06:27:32;15.93;;;3.90;;
72065;SDS011;59939;52.516;13.420;2023-07-13T06:30:37;12.10;;;3.63;;
72065;SDS011;59939;52.516;13.420;2023-07-13T06:33:43;9.98;;;3.78;;
72065;SDS011;59939;52.516;13.420;2023-07-13T06:36:49;10.93;;;3.50;;
72065;SDS011;59939;52.516;13.420;2023-07-13T06:39:56;11.30;;;3.00;;
72065;SDS011;59939;52.516;13.420;2023-07-13T06:43:01;10.25;;;3.08;;
72065;SDS011;59939;52.516;13.420;2023-07-13T06:46:06;9.60;;;3.33;;
72065;SDS011;59939;52.516;13.420;2023-07-13T06:49:25;9.65;;;2.75;;
72065;SDS011;59939;52.516;13.420;2023-07-13T06:52:29;10.90;;;2.95;;
72065;SDS011;59939;52.516;13.420;2023-07-13T06:55:37;7.88;;;2.72;;
72065;SDS011;59939;52.516;13.420;2023-07-13T07:02:13;8.38;;;2.70;;
72065;SDS011;59939;52.516;13.420;2023-07-13T07:05:17;6.45;;;2.45;;
72065;SDS011;59939;52.516;13.420;2023-07-13T07:08:22;6.70;;;2.40;;
72065;SDS011;59939;52.516;13.420;2023-07-13T07:11:26;9.73;;;2.55;;
72065;SDS011;59939;52.516;13.420;2023-07-13T07:14:31;9.38;;;2.50;;
72065;SDS011;59939;52.516;13.420;2023-07-13T07:17:35;5.82;;;2.03;;
72065;SDS011;59939;52.516;13.420;2023-07-13T07:20:52;9.05;;;3.05;;
72065;SDS011;59939;52.516;13.420;2023-07-13T07:27:39;8.13;;;2.40;;
72065;SDS011;59939;52.516;13.420;2023-07-13T07:30:47;9.70;;;2.40;;
72065;SDS011;59939;52.516;13.420;2023-07-13T07:33:58;7.75;;;2.03;;
72065;SDS011;59939;52.516;13.420;2023-07-13T07:37:47;7.85;;;2.03;;
72065;SDS011;59939;52.516;13.420;2023-07-13T07:40:56;8.60;;;2.25;;
72065;SDS011;59939;52.516;13.420;2023-07-13T07:44:04;5.25;;;1.90;;
72065;SDS011;59939;52.516;13.420;2023-07-13T07:47:11;7.30;;;1.90;;
72065;SDS011;59939;52.516;13.420;2023-07-13T07:50:26;5.43;;;2.00;;
72065;SDS011;59939;52.516;13.420;2023-07-13T07:53:39;6.22;;;1.67;;
72065;SDS011;59939;52.516;13.420;2023-07-13T07:56:45;4.80;;;1.98;;
72065;SDS011;59939;52.516;13.420;2023-07-13T08:00:14;10.30;;;2.47;;
72065;SDS011;59939;52.516;13.420;2023-07-13T08:03:24;10.27;;;2.30;;
72065;SDS011;59939;52.516;13.420;2023-07-13T08:14:35;8.90;;;2.40;;
72065;SDS011;59939;52.516;13.420;2023-07-13T08:22:52;6.93;;;2.10;;
72065;SDS011;59939;52.516;13.420;2023-07-13T08:26:17;7.65;;;2.20;;
72065;SDS011;59939;52.516;13.420;2023-07-13T08:34:17;6.47;;;2.00;;
72065;SDS011;59939;52.516;13.420;2023-07-13T09:07:39;6.13;;;1.73;;
72065;SDS011;59939;52.516;13.420;2023-07-13T09:35:16;15.70;;;2.28;;
72065;SDS011;59939;52.516;13.420;2023-07-13T09:47:21;6.82;;;2.08;;
72065;SDS011;59939;52.516;13.420;2023-07-13T09:54:24;8.32;;;2.38;;
72065;SDS011;59939;52.516;13.420;2023-07-13T09:57:42;9.52;;;2.95;;
72065;SDS011;59939;52.516;13.420;2023-07-13T10:24:28;7.65;;;2.80;;
72065;SDS011;59939;52.516;13.420;2023-07-13T10:33:56;7.60;;;2.60;;
72065;SDS011;59939;52.516;13.420;2023-07-13T10:37:05;7.43;;;2.90;;
72065;SDS011;59939;52.516;13.420;2023-07-13T10:40:19;5.50;;;2.33;;
72065;SDS011;59939;52.516;13.420;2023-07-13T10:44:02;10.23;;;2.58;;
72065;SDS011;59939;52.516;13.420;2023-07-13T10:47:25;7.80;;;2.55;;
72065;SDS011;59939;52.516;13.420;2023-07-13T10:50:38;8.27;;;2.45;;
72065;SDS011;59939;52.516;13.420;2023-07-13T10:53:47;6.30;;;2.47;;
72065;SDS011;59939;52.516;13.420;2023-07-13T11:01:02;8.23;;;3.00;;
72065;SDS011;59939;52.516;13.420;2023-07-13T11:04:21;10.15;;;2.47;;
72065;SDS011;59939;52.516;13.420;2023-07-13T11:07:28;6.32;;;2.70;;
72065;SDS011;59939;52.516;13.420;2023-07-13T11:22:09;7.55;;;2.55;;
72065;SDS011;59939;52.516;13.420;2023-07-13T11:28:24;6.85;;;2.35;;
72065;SDS011;59939;52.516;13.420;2023-07-13T11:31:28;11.40;;;3.00;;
72065;SDS011;59939;52.516;13.420;2023-07-13T11:34:39;9.63;;;2.80;;
72065;SDS011;59939;52.516;13.420;2023-07-13T11:37:44;16.05;;;3.10;;
72065;SDS011;59939;52.516;13.420;2023-07-13T11:40:51;6.03;;;2.30;;
72065;SDS011;59939;52.516;13.420;2023-07-13T11:44:12;7.22;;;2.60;;
72065;SDS011;59939;52.516;13.420;2023-07-13T11:47:30;9.23;;;2.92;;
72065;SDS011;59939;52.516;13.420;2023-07-13T11:51:34;6.82;;;2.45;;
72065;SDS011;59939;52.516;13.420;2023-07-13T11:54:56;5.75;;;2.35;;
72065;SDS011;59939;52.516;13.420;2023-07-13T11:58:28;9.30;;;2.60;;
72065;SDS011;59939;52.516;13.420;2023-07-13T12:06:54;7.22;;;2.20;;
72065;SDS011;59939;52.516;13.420;2023-07-13T12:15:59;8.63;;;2.25;;
72065;SDS011;59939;52.516;13.420;2023-07-13T12:22:27;12.38;;;2.65;;
72065;SDS011;59939;52.516;13.420;2023-07-13T12:25:48;9.57;;;3.00;;
72065;SDS011;59939;52.516;13.420;2023-07-13T12:28:56;8.55;;;2.17;;
72065;SDS011;59939;52.516;13.420;2023-07-13T12:32:16;5.03;;;2.00;;
72065;SDS011;59939;52.516;13.420;2023-07-13T12:35:22;13.93;;;2.63;;
72065;SDS011;59939;52.516;13.420;2023-07-13T12:38:27;14.35;;;2.80;;
72065;SDS011;59939;52.516;13.420;2023-07-13T12:41:35;8.40;;;2.50;;
72065;SDS011;59939;52.516;13.420;2023-07-13T12:53:13;5.70;;;1.85;;
72065;SDS011;59939;52.516;13.420;2023-07-13T12:56:27;4.78;;;2.03;;
72065;SDS011;59939;52.516;13.420;2023-07-13T13:04:25;4.75;;;1.83;;
72065;SDS011;59939;52.516;13.420;2023-07-13T13:11:06;5.78;;;1.83;;
72065;SDS011;59939;52.516;13.420;2023-07-13T13:14:11;5.78;;;2.22;;
72065;SDS011;59939;52.516;13.420;2023-07-13T13:17:26;8.48;;;2.42;;
72065;SDS011;59939;52.516;13.420;2023-07-13T13:20:31;5.75;;;2.10;;
72065;SDS011;59939;52.516;13.420;2023-07-13T13:24:00;7.72;;;2.10;;
72065;SDS011;59939;52.516;13.420;2023-07-13T13:27:22;3.10;;;1.70;;
72065;SDS011;59939;52.516;13.420;2023-07-13T13:35:26;4.03;;;1.45;;
72065;SDS011;59939;52.516;13.420;2023-07-13T13:38:33;6.32;;;2.00;;
72065;SDS011;59939;52.516;13.420;2023-07-13T13:41:37;8.70;;;1.90;;
72065;SDS011;59939;52.516;13.420;2023-07-13T13:44:41;3.95;;;1.70;;
72065;SDS011;59939;52.516;13.420;2023-07-13T13:47:45;4.25;;;1.80;;
72065;SDS011;59939;52.516;13.420;2023-07-13T13:50:51;5.25;;;1.80;;
72065;SDS011;59939;52.516;13.420;2023-07-13T13:53:57;7.18;;;1.90;;
72065;SDS011;59939;52.516;13.420;2023-07-13T13:57:01;6.03;;;1.50;;
72065;SDS011;59939;52.516;13.420;2023-07-13T14:00:22;8.27;;;2.17;;
72065;SDS011;59939;52.516;13.420;2023-07-13T14:03:29;11.48;;;2.50;;
72065;SDS011;59939;52.516;13.420;2023-07-13T14:07:03;3.53;;;1.70;;
72065;SDS011;59939;52.516;13.420;2023-07-13T14:10:10;7.60;;;1.80;;
72065;SDS011;59939;52.516;13.420;2023-07-13T14:16:54;4.75;;;1.83;;
72065;SDS011;59939;52.516;13.420;2023-07-13T14:20:19;4.53;;;1.55;;
72065;SDS011;59939;52.516;13.420;2023-07-13T14:23:33;3.72;;;1.58;;
72065;SDS011;59939;52.516;13.420;2023-07-13T14:30:31;4.88;;;1.90;;
72065;SDS011;59939;52.516;13.420;2023-07-13T14:38:01;5.65;;;1.52;;
72065;SDS011;59939;52.516;13.420;2023-07-13T14:41:45;6.93;;;1.90;;
72065;SDS011;59939;52.516;13.420;2023-07-13T14:44:50;3.20;;;1.60;;
72065;SDS011;59939;52.516;13.420;2023-07-13T14:47:57;3.67;;;1.67;;
72065;SDS011;59939;52.516;13.420;2023-07-13T14:51:04;3.25;;;1.42;;
72065;SDS011;59939;52.516;13.420;2023-07-13T14:54:08;5.47;;;1.48;;
72065;SDS011;59939;52.516;13.420;2023-07-13T14:57:17;5.60;;;1.70;;
72065;SDS011;59939;52.516;13.420;2023-07-13T15:00:32;7.35;;;1.70;;
72065;SDS011;59939;52.516;13.420;2023-07-13T15:03:49;4.05;;;1.55;;
72065;SDS011;59939;52.516;13.420;2023-07-13T15:07:26;7.97;;;2.00;;
72065;SDS011;59939;52.516;13.420;2023-07-13T15:10:41;4.90;;;1.67;;
72065;SDS011;59939;52.516;13.420;2023-07-13T15:13:46;5.15;;;1.60;;
72065;SDS011;59939;52.516;13.420;2023-07-13T15:16:51;9.20;;;1.88;;
72065;SDS011;59939;52.516;13.420;2023-07-13T15:20:06;1.42;;;1.08;;
72065;SDS011;59939;52.516;13.420;2023-07-13T15:23:16;7.28;;;1.55;;
72065;SDS011;59939;52.516;13.420;2023-07-13T15:26:21;4.53;;;1.52;;
72065;SDS011;59939;52.516;13.420;2023-07-13T15:29:27;4.18;;;1.25;;
72065;SDS011;59939;52.516;13.420;2023-07-13T15:32:34;3.22;;;1.00;;
72065;SDS011;59939;52.516;13.420;2023-07-13T15:35:39;2.53;;;1.20;;
72065;SDS011;59939;52.516;13.420;2023-07-13T15:38:46;2.13;;;1.00;;
72065;SDS011;59939;52.516;13.420;2023-07-13T15:41:59;7.55;;;1.63;;
72065;SDS011;59939;52.516;13.420;2023-07-13T15:45:52;5.55;;;1.48;;
72065;SDS011;59939;52.516;13.420;2023-07-13T15:49:28;5.25;;;1.35;;
72065;SDS011;59939;52.516;13.420;2023-07-13T15:52:32;4.18;;;1.40;;
72065;SDS011;59939;52.516;13.420;2023-07-13T15:55:38;5.95;;;1.70;;
72065;SDS011;59939;52.516;13.420;2023-07-13T15:58:51;4.30;;;1.52;;
72065;SDS011;59939;52.516;13.420;2023-07-13T16:01:55;2.30;;;1.20;;
72065;SDS011;59939;52.516;13.420;2023-07-13T16:05:00;6.05;;;1.60;;
72065;SDS011;59939;52.516;13.420;2023-07-13T16:08:05;3.33;;;1.30;;
72065;SDS011;59939;52.516;13.420;2023-07-13T16:11:20;4.18;;;1.30;;
72065;SDS011;59939;52.516;13.420;2023-07-13T16:14:26;2.75;;;1.27;;
72065;SDS011;59939;52.516;13.420;2023-07-13T16:17:32;7.93;;;1.48;;
72065;SDS011;59939;52.516;13.420;2023-07-13T16:20:36;3.88;;;1.58;;
72065;SDS011;59939;52.516;13.420;2023-07-13T16:23:41;7.15;;;1.58;;
72065;SDS011;59939;52.516;13.420;2023-07-13T16:26:54;4.35;;;1.27;;
72065;SDS011;59939;52.516;13.420;2023-07-13T16:30:00;4.18;;;1.50;;
72065;SDS011;59939;52.516;13.420;2023-07-13T16:33:11;3.67;;;1.48;;
72065;SDS011;59939;52.516;13.420;2023-07-13T16:36:22;2.97;;;1.40;;
72065;SDS011;59939;52.516;13.420;2023-07-13T16:39:26;7.20;;;2.15;;
72065;SDS011;59939;52.516;13.420;2023-07-13T16:42:32;7.18;;;2.00;;
72065;SDS011;59939;52.516;13.420;2023-07-13T16:45:36;2.50;;;0.98;;
72065;SDS011;59939;52.516;13.420;2023-07-13T16:48:44;5.82;;;1.70;;
72065;SDS011;59939;52.516;13.420;2023-07-13T16:51:48;7.40;;;1.80;;
72065;SDS011;59939;52.516;13.420;2023-07-13T16:54:52;3.47;;;1.40;;
72065;SDS011;59939;52.516;13.420;2023-07-13T16:58:04;5.07;;;1.30;;
72065;SDS011;59939;52.516;13.420;2023-07-13T17:01:10;5.28;;;1.52;;
72065;SDS011;59939;52.516;13.420;2023-07-13T17:04:16;5.25;;;1.77;;
72065;SDS011;59939;52.516;13.420;2023-07-13T17:07:29;8.02;;;2.15;;
72065;SDS011;59939;52.516;13.420;2023-07-13T17:10:35;9.75;;;2.25;;
72065;SDS011;59939;52.516;13.420;2023-07-13T17:13:40;15.40;;;2.80;;
72065;SDS011;59939;52.516;13.420;2023-07-13T17:16:47;12.70;;;2.60;;
72065;SDS011;59939;52.516;13.420;2023-07-13T17:19:59;12.57;;;3.13;;
72065;SDS011;59939;52.516;13.420;2023-07-13T17:23:23;9.82;;;2.80;;
72065;SDS011;59939;52.516;13.420;2023-07-13T17:26:30;10.90;;;3.08;;
72065;SDS011;59939;52.516;13.420;2023-07-13T17:29:35;7.78;;;2.72;;
72065;SDS011;59939;52.516;13.420;2023-07-13T17:32:55;9.02;;;2.67;;
72065;SDS011;59939;52.516;13.420;2023-07-13T17:36:09;8.88;;;2.33;;
72065;SDS011;59939;52.516;13.420;2023-07-13T17:39:21;11.10;;;2.50;;
72065;SDS011;59939;52.516;13.420;2023-07-13T17:42:39;8.98;;;2.22;;
72065;SDS011;59939;52.516;13.420;2023-07-13T17:45:44;8.57;;;2.92;;
72065;SDS011;59939;52.516;13.420;2023-07-13T17:48:50;7.40;;;2.50;;
72065;SDS011;59939;52.516;13.420;2023-07-13T17:51:55;10.00;;;2.72;;
72065;SDS011;59939;52.516;13.420;2023-07-13T17:54:59;12.32;;;3.05;;
72065;SDS011;59939;52.516;13.420;2023-07-13T17:58:06;8.27;;;2.72;;
72065;SDS011;59939;52.516;13.420;2023-07-13T18:01:14;8.43;;;2.63;;
72065;SDS011;59939;52.516;13.420;2023-07-13T18:04:21;9.85;;;2.80;;
72065;SDS011;59939;52.516;13.420;2023-07-13T18:07:29;9.07;;;2.83;;
72065;SDS011;59939;52.516;13.420;2023-07-13T18:10:40;10.20;;;2.90;;
72065;SDS011;59939;52.516;13.420;2023-07-13T18:13:44;8.55;;;3.13;;
72065;SDS011;59939;52.516;13.420;2023-07-13T18:16:55;10.23;;;3.03;;
72065;SDS011;59939;52.516;13.420;2023-07-13T18:19:59;12.10;;;2.85;;
72065;SDS011;59939;52.516;13.420;2023-07-13T18:23:07;8.05;;;2.42;;
72065;SDS011;59939;52.516;13.420;2023-07-13T18:26:17;12.52;;;2.80;;
72065;SDS011;59939;52.516;13.420;2023-07-13T18:29:28;8.90;;;3.33;;
72065;SDS011;59939;52.516;13.420;2023-07-13T18:32:32;7.32;;;2.83;;
72065;SDS011;59939;52.516;13.420;2023-07-13T18:35:38;8.13;;;2.47;;
72065;SDS011;59939;52.516;13.420;2023-07-13T18:38:44;11.18;;;3.05;;
72065;SDS011;59939;52.516;13.420;2023-07-13T18:42:07;7.05;;;2.60;;
72065;SDS011;59939;52.516;13.420;2023-07-13T18:45:12;7.22;;;2.53;;
72065;SDS011;59939;52.516;13.420;2023-07-13T18:48:20;7.05;;;2.83;;
72065;SDS011;59939;52.516;13.420;2023-07-13T18:51:25;8.38;;;2.58;;
72065;SDS011;59939;52.516;13.420;2023-07-13T18:54:30;8.07;;;2.72;;
72065;SDS011;59939;52.516;13.420;2023-07-13T18:57:34;9.55;;;2.95;;
72065;SDS011;59939;52.516;13.420;2023-07-13T19:00:38;7.22;;;2.33;;
72065;SDS011;59939;52.516;13.420;2023-07-13T19:03:42;7.20;;;2.50;;
72065;SDS011;59939;52.516;13.420;2023-07-13T19:06:46;8.38;;;3.13;;
72065;SDS011;59939;52.516;13.420;2023-07-13T19:09:54;7.93;;;2.63;;
72065;SDS011;59939;52.516;13.420;2023-07-13T19:13:01;10.15;;;2.90;;
72065;SDS011;59939;52.516;13.420;2023-07-13T19:16:08;9.98;;;2.80;;
72065;SDS011;59939;52.516;13.420;2023-07-13T19:19:13;8.40;;;2.70;;
72065;SDS011;59939;52.516;13.420;2023-07-13T19:22:19;7.50;;;2.60;;
72065;SDS011;59939;52.516;13.420;2023-07-13T19:25:24;9.35;;;2.55;;
72065;SDS011;59939;52.516;13.420;2023-07-13T19:28:37;5.82;;;2.08;;
72065;SDS011;59939;52.516;13.420;2023-07-13T19:35:13;9.23;;;3.22;;
72065;SDS011;59939;52.516;13.420;2023-07-13T19:41:46;10.27;;;2.88;;
72065;SDS011;59939;52.516;13.420;2023-07-13T19:44:54;8.77;;;2.85;;
72065;SDS011;59939;52.516;13.420;2023-07-13T19:47:58;10.95;;;3.10;;
72065;SDS011;59939;52.516;13.420;2023-07-13T19:51:04;11.65;;;3.25;;
72065;SDS011;59939;52.516;13.420;2023-07-13T19:54:16;10.00;;;2.90;;
72065;SDS011;59939;52.516;13.420;2023-07-13T19:57:26;9.85;;;3.28;;
72065;SDS011;59939;52.516;13.420;2023-07-13T20:00:32;14.52;;;3.88;;
72065;SDS011;59939;52.516;13.420;2023-07-13T20:03:43;9.48;;;2.83;;
72065;SDS011;59939;52.516;13.420;2023-07-13T20:06:49;10.52;;;3.15;;
72065;SDS011;59939;52.516;13.420;2023-07-13T20:09:53;10.15;;;3.42;;
72065;SDS011;59939;52.516;13.420;2023-07-13T20:12:58;10.27;;;3.05;;
72065;SDS011;59939;52.516;13.420;2023-07-13T20:16:12;9.85;;;3.30;;
72065;SDS011;59939;52.516;13.420;2023-07-13T20:19:17;9.57;;;2.80;;
72065;SDS011;59939;52.516;13.420;2023-07-13T20:22:23;10.85;;;3.03;;
72065;SDS011;59939;52.516;13.420;2023-07-13T20:25:28;9.27;;;2.88;;
72065;SDS011;59939;52.516;13.420;2023-07-13T20:28:33;9.18;;;2.60;;
72065;SDS011;59939;52.516;13.420;2023-07-13T20:31:37;8.80;;;2.30;;
72065;SDS011;59939;52.516;13.420;2023-07-13T20:34:44;6.57;;;2.17;;
72065;SDS011;59939;52.516;13.420;2023-07-13T20:37:48;9.63;;;2.45;;
72065;SDS011;59939;52.516;13.420;2023-07-13T20:41:09;7.93;;;2.25;;
72065;SDS011;59939;52.516;13.420;2023-07-13T20:44:14;6.75;;;2.20;;
72065;SDS011;59939;52.516;13.420;2023-07-13T20:47:20;8.43;;;2.40;;
72065;SDS011;59939;52.516;13.420;2023-07-13T20:50:28;6.65;;;2.30;;
72065;SDS011;59939;52.516;13.420;2023-07-13T20:53:32;5.93;;;2.40;;
72065;SDS011;59939;52.516;13.420;2023-07-13T20:56:38;7.57;;;2.60;;
72065;SDS011;59939;52.516;13.420;2023-07-13T20:59:42;7.53;;;2.55;;
72065;SDS011;59939;52.516;13.420;2023-07-13T21:02:50;7.53;;;2.53;;
72065;SDS011;59939;52.516;13.420;2023-07-13T21:05:59;6.38;;;2.45;;
72065;SDS011;59939;52.516;13.420;2023-07-13T21:09:13;5.25;;;2.15;;
72065;SDS011;59939;52.516;13.420;2023-07-13T21:12:32;7.13;;;2.38;;
72065;SDS011;59939;52.516;13.420;2023-07-13T21:15:37;8.40;;;2.80;;
72065;SDS011;59939;52.516;13.420;2023-07-13T21:18:41;5.15;;;2.20;;
72065;SDS011;59939;52.516;13.420;2023-07-13T21:21:45;5.88;;;2.45;;
72065;SDS011;59939;52.516;13.420;2023-07-13T21:25:11;7.95;;;2.28;;
72065;SDS011;59939;52.516;13.420;2023-07-13T21:28:15;9.82;;;2.17;;
72065;SDS011;59939;52.516;13.420;2023-07-13T21:31:26;10.00;;;2.60;;
72065;SDS011;59939;52.516;13.420;2023-07-13T21:34:32;9.07;;;2.75;;
72065;SDS011;59939;52.516;13.420;2023-07-13T21:37:37;9.63;;;2.85;;
72065;SDS011;59939;52.516;13.420;2023-07-13T21:40:49;9.27;;;2.88;;
72065;SDS011;59939;52.516;13.420;2023-07-13T21:43:53;7.50;;;2.63;;
72065;SDS011;59939;52.516;13.420;2023-07-13T21:46:58;10.20;;;2.80;;
72065;SDS011;59939;52.516;13.420;2023-07-13T21:50:04;9.68;;;3.35;;
72065;SDS011;59939;52.516;13.420;2023-07-13T21:53:12;8.98;;;3.17;;
72065;SDS011;59939;52.516;13.420;2023-07-13T21:56:17;9.38;;;2.80;;